Latest Weather Observations for Robe Airport

IDS60801

Issued at 12:35 pm CST Friday 29 August 2014 (issued every 30 minutes, with the page automatically refreshed every 10 minutes)

About weather observations | Map of weather stations | Latest weather observations for SA | Other Formats
Station Details ID: 026105 Name: ROBE AIRFIELD Lat: -37.18 Lon: 139.81 Height: 3.0 m
Data from the previous 72 hours. | See also: Recent months at Robe Airport
Date/Time
CST
Temp
°C
App
Temp
°C
Dew
Point
Rel
Hum
%
Delta-T
°C
Wind Press
QNH
hPa
Press
MSL
hPa
Rain
since 9 am
mm
Dir
 
Spd
km/h
Gust
km/h
Spd
kts
Gust
kts
29/12:30pm 18.4 15.8 11.9 66 3.6 NW 17 20 9 11 1027.8 1027.8 0.0
29/12:00pm 17.7 15.5 12.2 70 3.0 NW 15 17 8 9 1028.1 1028.1 0.0
29/11:30am 18.0 16.4 12.9 72 2.8 NW 13 17 7 9 1028.4 1028.4 0.0
29/11:00am 18.0 16.7 12.5 70 3.1 NW 11 15 6 8 1028.6 1028.6 0.0
29/10:30am 17.6 16.2 12.1 70 3.0 NW 11 15 6 8 1028.6 1028.6 0.0
29/10:00am 17.3 16.2 11.8 70 3.0 NNW 9 13 5 7 1028.6 1028.6 0.0
29/09:30am 16.5 15.6 12.5 77 2.2 N 9 13 5 7 1028.8 1028.8 0.0
29/09:00am 14.4 14.1 12.6 89 1.0 N 6 9 3 5 1028.9 1028.9 0.2
29/08:30am 11.7 11.2 10.9 95 0.4 N 4 6 2 3 1029.0 1029.0 0.2
29/08:00am 9.6 8.8 9.5 99 0.0 N 4 6 2 3 1028.9 1028.9 0.2
29/07:30am 7.3 5.5 7.2 99 0.0 NNW 6 7 3 4 1028.6 1028.6 0.2
29/07:00am 5.3 2.9 5.2 99 0.0 NW 7 9 4 5 1028.3 1028.3 0.2
29/06:30am 5.5 3.3 5.2 98 0.1 NNE 6 6 3 3 1028.0 1028.0 0.2
29/06:00am 7.0 5.5 6.9 99 0.0 NNE 4 4 2 2 1027.8 1027.8 0.2
29/05:30am 7.3 5.9 7.2 99 0.0 NNE 4 7 2 4 1027.5 1027.5 0.2
29/05:00am 7.0 5.5 6.9 99 0.0 NNE 4 4 2 2 1027.5 1027.5 0.2
29/04:30am 6.8 4.9 6.7 99 0.0 NNE 6 7 3 4 1027.4 1027.4 0.2
29/04:00am 6.6 4.7 6.5 99 0.0 NNE 6 7 3 4 1027.5 1027.5 0.2
29/03:30am 5.4 3.5 5.1 98 0.1 NNE 4 6 2 3 1027.6 1027.6 0.2
29/03:00am 5.6 3.4 5.3 98 0.1 NNE 6 7 3 4 1027.8 1027.8 0.2
29/02:30am 5.0 3.8 4.7 98 0.1 CALM 0 0 0 0 1028.0 1028.0 0.2
29/02:00am 3.8 2.4 3.4 97 0.2 CALM 0 0 0 0 1028.1 1028.1 0.2
29/01:30am 6.3 5.4 6.2 99 0.0 CALM 0 0 0 0 1028.4 1028.4 0.2
29/01:00am 3.8 2.4 3.4 97 0.2 CALM 0 0 0 0 1028.6 1028.6 0.2
29/12:30am 3.5 2.0 3.1 97 0.2 CALM 0 0 0 0 1028.6 1028.6 0.2
29/12:00am 4.2 2.8 3.8 97 0.2 WNW 0 0 0 0 1028.6 1028.6 0.2
 
Date/Time
CST
Temp
°C
App
Temp
°C
Dew
Point
Rel
Hum
%
Delta-T
°C
Wind Press
QNH
hPa
Press
MSL
hPa
Rain
since 9 am
mm
Dir
 
Spd
km/h
Gust
km/h
Spd
kts
Gust
kts
28/11:30pm 4.6 3.3 4.2 97 0.2 CALM 0 0 0 0 1028.7 1028.7 0.2
28/11:00pm 4.3 2.9 3.7 96 0.2 CALM 0 0 0 0 1028.6 1028.6 0.2
28/10:30pm 5.0 3.8 4.4 96 0.3 CALM 0 0 0 0 1028.6 1028.6 0.2
28/10:00pm 5.3 4.1 4.7 96 0.3 CALM 0 0 0 0 1028.6 1028.6 0.2
28/09:30pm 5.4 4.2 4.8 96 0.3 CALM 0 0 0 0 1028.5 1028.5 0.2
28/09:00pm 5.7 4.6 5.0 95 0.3 CALM 0 0 0 0 1028.5 1028.5 0.2
28/08:30pm 7.9 7.3 7.5 97 0.2 CALM 0 0 0 0 1028.5 1028.5 0.2
28/08:00pm 7.2 6.4 6.5 95 0.3 CALM 0 0 0 0 1028.3 1028.3 0.2
28/07:30pm 8.2 7.6 7.3 94 0.4 CALM 0 0 0 0 1028.2 1028.2 0.2
28/07:00pm 9.9 9.7 9.1 95 0.4 CALM 0 0 0 0 1028.1 1028.1 0.2
28/06:30pm 10.8 10.7 9.6 92 0.6 CALM 0 0 0 0 1028.1 1028.1 0.2
28/06:00pm 12.1 11.6 10.7 91 0.7 WNW 4 6 2 3 1028.1 1028.1 0.2
28/05:30pm 14.4 13.4 10.2 76 2.2 WNW 6 9 3 5 1027.8 1027.8 0.2
28/05:00pm 16.4 15.2 10.3 67 3.2 WNW 7 11 4 6 1027.8 1027.8 0.2
28/04:30pm 17.3 15.6 10.0 62 3.8 WNW 9 15 5 8 1027.6 1027.6 0.2
28/04:00pm 18.0 16.5 10.4 61 4.1 WNW 9 15 5 8 1027.5 1027.5 0.2
28/03:30pm 17.6 15.4 10.7 64 3.7 NW 13 17 7 9 1027.4 1027.4 0.2
28/03:00pm 17.7 15.6 11.0 65 3.6 NW 13 19 7 10 1027.2 1027.2 0.2
28/02:30pm 17.7 15.6 11.0 65 3.6 NW 13 17 7 9 1027.3 1027.3 0.2
28/02:00pm 18.1 15.7 11.4 65 3.7 NW 15 22 8 12 1027.2 1027.2 0.2
28/01:30pm 18.3 15.8 10.9 62 4.0 NW 15 22 8 12 1027.3 1027.3 0.2
28/01:00pm 18.4 15.9 11.0 62 4.0 NW 15 19 8 10 1027.5 1027.5 0.2
28/12:30pm 18.5 15.6 11.1 62 4.0 NW 17 24 9 13 1027.7 1027.7 0.2
28/12:00pm 18.5 15.6 11.1 62 4.0 NW 17 20 9 11 1028.0 1028.0 0.0
28/11:30am 18.0 15.5 11.1 64 3.7 NNW 15 20 8 11 1028.5 1028.5 0.0
28/11:00am 17.9 16.0 11.7 67 3.4 NW 13 17 7 9 1028.8 1028.8 0.0
28/10:30am 17.2 15.4 10.8 66 3.4 NNW 11 19 6 10 1028.9 1028.9 0.0
28/10:00am 16.6 14.3 10.5 67 3.2 NNW 13 17 7 9 1028.9 1028.9 0.0
28/09:30am 15.4 14.0 10.8 74 2.4 NNW 9 11 5 6 1029.1 1029.1 0.0
28/09:00am 14.0 12.9 10.8 81 1.7 NNW 7 11 4 6 1029.1 1029.1 0.0
28/08:30am 11.9 10.7 10.3 90 0.8 N 7 9 4 5 1029.1 1029.1 0.0
28/08:00am 9.5 8.3 9.4 99 0.0 NNW 6 7 3 4 1029.1 1029.1 0.0
28/07:30am 6.3 4.3 6.2 99 0.0 NNW 6 7 3 4 1028.9 1028.9 0.0
28/07:00am 5.0 3.1 4.7 98 0.1 N 4 6 2 3 1028.7 1028.7 0.0
28/06:30am 5.1 2.8 5.0 99 0.0 N 6 6 3 3 1028.3 1028.3 0.0
28/06:00am 3.3 0.7 3.2 99 0.0 N 6 7 3 4 1028.1 1028.1 0.0
28/05:30am 1.8 0.0 1.4 97 0.2 CALM 0 0 0 0 1027.9 1027.9 0.0
28/05:00am 3.5 2.0 3.2 98 0.1 CALM 0 0 0 0 1027.8 1027.8 0.0
28/04:30am 4.5 3.2 4.2 98 0.1 CALM 0 0 0 0 1027.6 1027.6 0.0
28/04:00am 4.0 2.2 3.7 98 0.1 N 2 6 1 3 1027.6 1027.6 0.0
28/03:30am 3.8 1.3 3.5 98 0.1 NNE 6 13 3 7 1027.5 1027.5 0.0
28/03:00am 4.6 2.6 4.3 98 0.1 SW 4 6 2 3 1027.8 1027.8 0.0
28/02:30am 3.9 2.5 3.6 98 0.1 CALM 0 0 0 0 1028.0 1028.0 0.0
28/02:00am 3.4 1.9 3.1 98 0.1 CALM 0 0 0 0 1028.1 1028.1 0.0
28/01:30am 3.3 1.8 2.9 97 0.2 CALM 0 0 0 0 1028.2 1028.2 0.0
28/01:00am 3.7 2.3 3.3 97 0.2 CALM 0 0 0 0 1028.4 1028.4 0.0
28/12:30am 4.0 2.6 3.7 98 0.1 CALM 0 0 0 0 1028.3 1028.3 0.0
28/12:00am 3.9 2.5 3.5 97 0.2 CALM 0 0 0 0 1028.6 1028.6 0.0
 
Date/Time
CST
Temp
°C
App
Temp
°C
Dew
Point
Rel
Hum
%
Delta-T
°C
Wind Press
QNH
hPa
Press
MSL
hPa
Rain
since 9 am
mm
Dir
 
Spd
km/h
Gust
km/h
Spd
kts
Gust
kts
27/11:30pm 5.5 4.4 5.2 98 0.1 CALM 0 0 0 0 1028.7 1028.7 0.0
27/11:00pm 5.6 4.5 5.3 98 0.1 CALM 0 0 0 0 1028.8 1028.8 0.0
27/10:30pm 5.9 4.9 5.6 98 0.1 CALM 0 0 0 0 1028.8 1028.8 0.0
27/10:00pm 4.7 3.4 4.1 96 0.3 CALM 0 0 0 0 1028.7 1028.7 0.0
27/09:30pm 5.1 3.9 4.4 95 0.3 CALM 0 0 0 0 1028.7 1028.7 0.0
27/09:00pm 5.8 4.7 5.1 95 0.3 CALM 0 0 0 0 1028.4 1028.4 0.0
27/08:30pm 5.6 4.4 4.7 94 0.4 CALM 0 0 0 0 1028.4 1028.4 0.0
27/08:00pm 7.3 6.5 6.6 95 0.3 CALM 0 0 0 0 1028.3 1028.3 0.0
27/07:30pm 6.6 5.5 5.2 91 0.6 CALM 0 0 0 0 1028.1 1028.1 0.0
27/07:00pm 8.6 7.9 7.1 90 0.7 CALM 0 0 0 0 1027.9 1027.9 0.0
27/06:30pm 11.0 10.9 9.3 89 0.8 CALM 0 0 0 0 1027.6 1027.6 0.0
27/06:00pm 12.2 11.7 9.4 83 1.4 WSW 2 4 1 2 1027.5 1027.5 0.0
27/05:30pm 14.6 13.7 9.4 71 2.7 WSW 4 6 2 3 1027.3 1027.3 0.0
27/05:00pm 16.1 14.5 8.1 59 4.0 W 6 7 3 4 1027.1 1027.1 0.0
27/04:30pm 16.3 14.9 8.8 61 3.8 W 6 7 3 4 1026.8 1026.8 0.0
27/04:00pm 17.4 15.0 7.2 51 5.1 WNW 9 13 5 7 1026.7 1026.7 0.0
27/03:30pm 17.5 14.8 7.3 51 5.1 NW 11 15 6 8 1026.7 1026.7 0.0
27/03:00pm 17.7 15.0 7.4 51 5.1 NW 11 15 6 8 1026.7 1026.7 0.0
27/02:30pm 17.7 14.9 8.6 55 4.7 NW 13 15 7 8 1026.7 1026.7 0.0
27/02:00pm 18.0 15.1 8.0 52 5.1 NW 13 15 7 8 1026.7 1026.7 0.0
27/01:30pm 18.1 15.7 10.0 59 4.3 NW 13 17 7 9 1026.6 1026.6 0.0
27/01:00pm 18.2 16.5 11.3 64 3.8 NW 11 17 6 9 1026.8 1026.8 0.0
27/12:30pm 17.8 15.9 10.4 62 3.9 NW 11 15 6 8 1027.1 1027.1 0.0
27/12:00pm 17.7 15.2 9.6 59 4.2 NNW 13 17 7 9 1027.4 1027.4 0.0
27/11:30am 17.1 15.5 10.2 64 3.6 NW 9 13 5 7 1027.9 1027.9 0.0
27/11:00am 16.9 15.3 10.1 64 3.6 NW 9 13 5 7 1028.2 1028.2 0.0
27/10:30am 16.2 14.5 9.8 66 3.3 NW 9 13 5 7 1028.3 1028.3 0.0
27/10:00am 16.0 14.5 10.5 70 2.9 N 9 13 5 7 1028.1 1028.1 0.0
27/09:30am 13.7 12.3 9.7 77 2.0 NNE 7 11 4 6 1028.3 1028.3 0.0
27/09:00am 11.8 10.7 9.9 88 1.0 NNE 6 7 3 4 1028.3 1028.3 0.0
27/08:30am 10.0 9.2 9.7 98 0.1 NNE 4 7 2 4 1027.9 1027.9 0.0
27/08:00am 8.0 7.5 7.9 99 0.0 CALM 0 0 0 0 1027.7 1027.7 0.0
27/07:30am 4.7 3.1 4.6 99 0.0 ENE 2 4 1 2 1027.5 1027.5 0.0
27/07:00am 2.7 0.3 2.4 98 0.1 ENE 4 6 2 3 1027.1 1027.1 0.0
27/06:30am 2.8 0.8 2.5 98 0.1 ENE 2 4 1 2 1026.8 1026.8 0.0
27/06:00am 4.1 1.6 4.0 99 0.0 NE 6 7 3 4 1026.4 1026.4 0.0
27/05:30am 4.4 1.4 4.1 98 0.1 NE 9 15 5 8 1025.7 1025.7 0.0
27/05:00am 4.7 2.4 4.6 99 0.0 NE 6 7 3 4 1025.9 1025.9 0.0
27/04:30am 4.1 1.1 4.0 99 0.0 NE 9 11 5 6 1025.7 1025.7 0.0
27/04:00am 4.0 1.5 3.9 99 0.0 NE 6 7 3 4 1025.9 1025.9 0.0
27/03:30am 2.6 -0.2 2.3 98 0.1 NE 6 7 3 4 1026.0 1026.0 0.0
27/03:00am 1.5 -0.3 1.2 98 0.1 CALM 0 0 0 0 1026.1 1026.1 0.0
27/02:30am 1.6 -0.2 1.3 98 0.1 CALM 0 0 0 0 1026.2 1026.2 0.0
27/02:00am 1.7 -0.1 1.3 97 0.2 CALM 0 0 0 0 1026.2 1026.2 0.0
27/01:30am 1.8 0.0 1.4 97 0.2 CALM 0 0 0 0 1026.2 1026.2 0.0
27/01:00am 1.9 0.1 1.5 97 0.2 CALM 0 0 0 0 1026.6 1026.6 0.0
27/12:30am 2.3 0.6 1.9 97 0.2 CALM 0 0 0 0 1026.5 1026.5 0.0
27/12:00am 2.1 0.4 1.7 97 0.2 CALM 0 0 0 0 1026.4 1026.4 0.0
 
Date/Time
CST
Temp
°C
App
Temp
°C
Dew
Point
Rel
Hum
%
Delta-T
°C
Wind Press
QNH
hPa
Press
MSL
hPa
Rain
since 9 am
mm
Dir
 
Spd
km/h
Gust
km/h
Spd
kts
Gust
kts
26/11:30pm 2.4 0.7 2.0 97 0.2 CALM 0 0 0 0 1026.4 1026.4 0.0
26/11:00pm 2.1 0.3 1.5 96 0.2 CALM 0 0 0 0 1026.4 1026.4 0.0
26/10:30pm 3.8 2.4 3.4 97 0.2 CALM 0 0 0 0 1026.5 1026.5 0.0
26/10:00pm 2.7 1.0 2.0 95 0.3 CALM 0 0 0 0 1026.6 1026.6 0.0
26/09:30pm 3.8 2.3 3.1 95 0.3 CALM 0 0 0 0 1026.7 1026.7 0.0
26/09:00pm 4.1 2.7 3.4 95 0.3 CALM 0 0 0 0 1026.7 1026.7 0.0
26/08:30pm 4.7 3.3 3.8 94 0.4 CALM 0 0 0 0 1026.7 1026.7 0.0
26/08:00pm 5.4 4.2 4.4 93 0.4 CALM 0 0 0 0 1026.6 1026.6 0.0
26/07:30pm 6.7 5.7 5.7 93 0.4 CALM 0 0 0 0 1026.3 1026.3 0.0
26/07:00pm 7.1 6.1 5.4 89 0.8 CALM 0 0 0 0 1026.0 1026.0 0.0
26/06:30pm 9.1 8.5 7.4 89 0.8 CALM 0 0 0 0 1026.0 1026.0 0.0
26/06:00pm 10.2 9.6 7.6 84 1.2 CALM 0 2 0 1 1025.7 1025.7 0.0
26/05:30pm 12.4 11.4 8.7 78 1.8 SW 4 6 2 3 1025.5 1025.5 0.0
26/05:00pm 13.7 12.7 9.0 73 2.4 WSW 4 7 2 4 1025.4 1025.4 0.0
26/04:30pm 14.7 13.3 8.9 68 2.9 WNW 6 7 3 4 1025.3 1025.3 0.0
26/04:00pm 14.8 13.1 8.5 66 3.2 WNW 7 11 4 6 1025.3 1025.3 0.0
26/03:30pm 14.9 12.9 8.6 66 3.2 WNW 9 13 5 7 1025.5 1025.5 0.0
26/03:00pm 14.8 12.4 8.5 66 3.2 WNW 11 15 6 8 1025.7 1025.7 0.0
26/02:30pm 15.1 12.7 8.6 65 3.3 NW 11 15 6 8 1025.8 1025.8 0.0
26/02:00pm 15.7 13.2 9.8 68 3.1 NW 13 19 7 10 1026.0 1026.0 0.0
26/01:30pm 15.9 13.4 9.6 66 3.3 WNW 13 20 7 11 1026.1 1026.1 0.0
26/01:00pm 16.2 15.6 8.9 62 3.7 NW 2 9 1 5 1026.1 1026.1 0.0

Other Formats:

Comma delimited format used in spreadsheet applications
http://www.bom.gov.au/fwo/IDS60801/IDS60801.95816.axf

JavaScript Object Notation format (JSON) in row-major order
http://www.bom.gov.au/fwo/IDS60801/IDS60801.95816.json